Current Weather

Grand Prairie Muni

Grand Prairie, Texas (KGPM)

Report from: Sunday, February 25, 2024 2:50 PM CST
Current time: Sunday, February 25, 2024 3:32 PM CST

Nearby weather – Weather history – Daily summaries
Weather forecast

Temperature28.0°C (82.4°F)
Heat index27.4°C (81.3°F)
Dew point9.0°C (48.2°F)
Winds 12 kts (6.2 m/s, 13.8 mph) South (190°)
Wind gusts 20 kts (10.3 m/s, 23 mph)
Visibility10 mi. (16.1 km)
Clouds Sky clear
Altimeter29.85 in.Hg (1011 mB)
Relative humidity30 %
Density altitude1,743 ft. (531 m)
Flight conditions Visual Meteorological Conditions
Raw dataKGPM 252050Z 19012G20KT 10SM SKC 28/09 A2985
An error has occurred. This application may no longer respond until reloaded. Reload 🗙